createdAt,value
2017-07-12T00:00:03.259Z,4.50
2017-07-12T00:02:30.788Z,4.37
2017-07-12T00:04:58.322Z,4.27
2017-07-12T00:07:25.828Z,4.27
2017-07-12T00:09:53.393Z,3.83
2017-07-12T00:12:20.908Z,4.10
2017-07-12T00:14:48.431Z,4.03
2017-07-12T00:17:15.961Z,4.80
2017-07-12T00:19:43.481Z,3.87
2017-07-12T00:22:11.027Z,4.50
2017-07-12T00:24:38.572Z,4.17
2017-07-12T00:27:06.116Z,4.30
2017-07-12T00:29:33.635Z,4.00
2017-07-12T00:32:01.168Z,4.30
2017-07-12T00:34:28.711Z,4.43
2017-07-12T00:36:56.240Z,4.53
2017-07-12T00:39:23.756Z,4.03
2017-07-12T00:41:51.309Z,4.30
2017-07-12T00:44:18.825Z,4.27
2017-07-12T00:46:46.346Z,4.73
2017-07-12T00:49:13.868Z,4.47
2017-07-12T00:51:41.409Z,3.90
2017-07-12T00:54:08.945Z,3.80
2017-07-12T00:56:36.458Z,3.60
2017-07-12T00:59:03.992Z,3.83
2017-07-12T01:01:31.569Z,4.03
2017-07-12T01:03:59.136Z,3.47
2017-07-12T01:06:26.692Z,3.43
2017-07-12T01:08:54.253Z,3.50
2017-07-12T01:11:21.772Z,3.43
2017-07-12T01:13:49.330Z,3.53
2017-07-12T01:16:16.886Z,3.70
2017-07-12T01:18:44.444Z,3.40
2017-07-12T01:21:12.885Z,3.40
2017-07-12T01:23:40.435Z,3.30
2017-07-12T01:26:07.971Z,4.07
2017-07-12T01:28:35.506Z,3.40
2017-07-12T01:31:03.037Z,2.93
2017-07-12T01:33:30.544Z,3.30
2017-07-12T01:35:58.111Z,3.13
2017-07-12T01:38:25.633Z,3.00
2017-07-12T01:40:53.448Z,3.40
2017-07-12T01:43:20.959Z,3.00
2017-07-12T01:45:48.518Z,3.30
2017-07-12T01:48:16.041Z,2.97
2017-07-12T01:50:43.573Z,3.10
2017-07-12T01:53:11.118Z,3.10
2017-07-12T01:55:38.631Z,3.00
2017-07-12T01:58:06.181Z,3.17
2017-07-12T02:00:33.705Z,2.90
2017-07-12T02:03:01.254Z,3.13
2017-07-12T02:05:28.772Z,3.10
2017-07-12T02:07:56.309Z,2.93
2017-07-12T02:10:23.826Z,3.03
2017-07-12T02:12:51.469Z,2.90
2017-07-12T02:15:19.006Z,3.00
2017-07-12T02:17:46.554Z,2.83
2017-07-12T02:20:14.097Z,2.90
2017-07-12T02:22:41.640Z,2.80
2017-07-12T02:25:09.183Z,2.70
2017-07-12T02:27:36.712Z,3.00
2017-07-12T02:30:04.287Z,2.80
2017-07-12T02:32:31.820Z,3.40
2017-07-12T02:34:59.360Z,3.03
2017-07-12T02:37:26.897Z,3.07
2017-07-12T02:39:54.433Z,3.30
2017-07-12T02:42:22.715Z,2.97
2017-07-12T02:44:50.276Z,2.90
2017-07-12T02:47:17.792Z,2.67
2017-07-12T02:49:45.368Z,3.10
2017-07-12T02:52:12.911Z,3.07
2017-07-12T02:54:40.473Z,3.03
2017-07-12T02:57:08.015Z,3.00
2017-07-12T02:59:35.573Z,3.33
2017-07-12T03:02:03.145Z,2.90
2017-07-12T03:04:30.655Z,3.10
2017-07-12T03:06:58.975Z,3.10
2017-07-12T03:09:26.496Z,3.40
2017-07-12T03:11:54.052Z,3.17
2017-07-12T03:14:21.584Z,2.87
2017-07-12T03:16:49.118Z,3.07
2017-07-12T03:19:16.657Z,3.33
2017-07-12T03:21:44.207Z,3.10
2017-07-12T03:24:11.721Z,3.20
2017-07-12T03:26:39.438Z,3.43
2017-07-12T03:29:06.963Z,3.50
2017-07-12T03:31:34.535Z,4.00
2017-07-12T03:34:02.057Z,3.20
2017-07-12T03:36:29.576Z,4.07
2017-07-12T03:38:57.120Z,3.40
2017-07-12T03:41:24.638Z,3.90
2017-07-12T03:43:52.171Z,4.60
2017-07-12T03:46:19.691Z,4.60
2017-07-12T03:48:47.242Z,4.73
2017-07-12T03:51:14.791Z,5.50
2017-07-12T03:53:42.339Z,4.57
2017-07-12T03:56:09.883Z,5.23
2017-07-12T03:58:37.429Z,4.80
2017-07-12T04:01:05.012Z,4.70
2017-07-12T04:03:32.609Z,5.10
2017-07-12T04:06:00.160Z,4.80
2017-07-12T04:08:27.680Z,4.73
2017-07-12T04:10:55.237Z,5.20
2017-07-12T04:13:22.790Z,5.00
2017-07-12T04:15:50.339Z,5.00
2017-07-12T04:18:17.858Z,4.63
2017-07-12T04:20:45.436Z,5.10
2017-07-12T04:23:12.996Z,4.80
2017-07-12T04:25:40.541Z,4.80
2017-07-12T04:28:08.060Z,5.17
2017-07-12T04:30:35.580Z,4.37
2017-07-12T04:33:03.133Z,5.00
2017-07-12T04:35:30.689Z,4.70
2017-07-12T04:37:58.215Z,4.40
2017-07-12T04:40:25.748Z,4.97
2017-07-12T04:42:53.376Z,4.57
2017-07-12T04:45:20.897Z,4.00
2017-07-12T04:47:48.476Z,4.50
2017-07-12T04:50:15.997Z,4.60
2017-07-12T04:52:43.529Z,4.30
2017-07-12T04:55:11.079Z,4.33
2017-07-12T04:57:38.629Z,3.97
2017-07-12T05:00:06.153Z,4.00
2017-07-12T05:02:34.656Z,4.30
2017-07-12T05:05:02.192Z,4.50
2017-07-12T05:07:29.726Z,4.37
2017-07-12T05:09:57.244Z,3.53
2017-07-12T05:12:24.814Z,3.93
2017-07-12T05:14:52.354Z,4.53
2017-07-12T05:17:19.897Z,4.80
2017-07-12T05:19:47.476Z,4.10
2017-07-12T05:22:15.008Z,4.13
2017-07-12T05:24:42.586Z,3.77
2017-07-12T05:27:10.295Z,4.37
2017-07-12T05:29:37.852Z,4.03
2017-07-12T05:32:05.373Z,4.30
2017-07-12T05:34:33.165Z,4.10
2017-07-12T05:37:00.698Z,3.47
2017-07-12T05:39:28.240Z,3.70
2017-07-12T05:41:55.756Z,4.17
2017-07-12T05:44:23.300Z,4.17
2017-07-12T05:46:50.852Z,4.03
2017-07-12T05:49:18.380Z,4.10
2017-07-12T05:51:45.941Z,4.10
2017-07-12T05:54:13.810Z,3.40
2017-07-12T05:56:41.415Z,4.20
2017-07-12T05:59:08.943Z,4.10
2017-07-12T06:01:36.481Z,4.50
2017-07-12T06:04:04.827Z,4.13
2017-07-12T06:06:32.352Z,4.23
2017-07-12T06:08:59.868Z,3.80
2017-07-12T06:11:27.407Z,3.50
2017-07-12T06:13:55.092Z,3.30
2017-07-12T06:16:22.682Z,3.50
2017-07-12T06:18:50.234Z,3.50
2017-07-12T06:21:17.749Z,3.90
2017-07-12T06:23:45.312Z,3.67
2017-07-12T06:26:13.626Z,4.00
2017-07-12T06:28:41.170Z,3.73
2017-07-12T06:31:08.710Z,3.70
2017-07-12T06:33:36.257Z,4.37
2017-07-12T06:36:03.784Z,3.90
2017-07-12T06:38:31.311Z,3.90
2017-07-12T06:40:58.866Z,4.03
2017-07-12T06:43:26.425Z,3.80
2017-07-12T06:45:54.083Z,3.83
2017-07-12T06:48:21.616Z,3.93
2017-07-12T06:50:49.140Z,3.90
2017-07-12T06:53:16.674Z,4.10
2017-07-12T06:55:44.189Z,3.63
2017-07-12T06:58:11.704Z,3.77
2017-07-12T07:00:39.274Z,3.67
2017-07-12T07:03:06.794Z,3.67
2017-07-12T07:05:35.117Z,3.33
2017-07-12T07:08:02.641Z,3.50
2017-07-12T07:10:30.177Z,3.60
2017-07-12T07:12:57.689Z,3.97
2017-07-12T07:15:25.242Z,3.60
2017-07-12T07:17:52.786Z,3.40
2017-07-12T07:20:20.321Z,3.40
2017-07-12T07:22:47.872Z,4.00
2017-07-12T07:25:16.188Z,3.47
2017-07-12T07:27:43.717Z,3.80
2017-07-12T07:30:11.241Z,3.50
2017-07-12T07:32:38.768Z,3.50
2017-07-12T07:35:06.292Z,3.60
2017-07-12T07:37:33.865Z,3.73
2017-07-12T07:40:01.440Z,3.63
2017-07-12T07:42:29.003Z,3.33
2017-07-12T07:44:56.512Z,3.80
2017-07-12T07:47:24.039Z,3.43
2017-07-12T07:49:51.561Z,3.53
2017-07-12T07:52:19.084Z,3.50
2017-07-12T07:54:46.601Z,3.70
2017-07-12T07:57:14.177Z,3.73
2017-07-12T07:59:41.694Z,3.60
2017-07-12T08:02:09.229Z,3.90
2017-07-12T08:04:36.786Z,3.70
2017-07-12T08:07:04.338Z,3.37
2017-07-12T08:09:31.872Z,3.60
2017-07-12T08:11:59.389Z,3.70
2017-07-12T08:14:26.917Z,3.23
2017-07-12T08:16:54.467Z,3.30
2017-07-12T08:19:22.008Z,3.40
2017-07-12T08:21:49.549Z,3.53
2017-07-12T08:24:17.093Z,3.57
2017-07-12T08:26:44.610Z,3.50
2017-07-12T08:29:12.164Z,3.50
2017-07-12T08:31:39.700Z,3.60
2017-07-12T08:34:07.224Z,3.03
2017-07-12T08:36:34.779Z,3.60
2017-07-12T08:39:03.055Z,3.70
2017-07-12T08:41:30.584Z,3.33
2017-07-12T08:43:58.105Z,3.60
2017-07-12T08:46:25.647Z,3.50
2017-07-12T08:48:53.160Z,3.37
2017-07-12T08:51:20.725Z,3.67
2017-07-12T08:53:48.246Z,3.60
2017-07-12T08:56:15.793Z,3.60
2017-07-12T08:58:43.344Z,3.40
2017-07-12T09:01:10.893Z,4.03
2017-07-12T09:03:38.427Z,3.50
2017-07-12T09:06:06.704Z,3.60
2017-07-12T09:08:34.233Z,3.90
2017-07-12T09:11:01.765Z,3.33
2017-07-12T09:13:29.321Z,3.60
2017-07-12T09:15:56.848Z,3.90
2017-07-12T09:18:24.416Z,3.70
2017-07-12T09:20:51.935Z,3.60
2017-07-12T09:23:19.464Z,3.60
2017-07-12T09:33:09.630Z,3.80
2017-07-12T09:35:37.202Z,3.67
2017-07-12T09:38:04.737Z,3.63
2017-07-12T09:40:32.285Z,4.10
2017-07-12T09:42:59.802Z,3.80
2017-07-12T09:45:28.104Z,4.00
2017-07-12T09:47:55.698Z,3.53
2017-07-12T09:50:23.248Z,3.60
2017-07-12T09:52:50.770Z,3.70
2017-07-12T09:55:18.336Z,3.60
2017-07-12T09:57:45.864Z,4.00
2017-07-12T10:00:13.428Z,4.27
2017-07-12T10:02:40.982Z,3.53
2017-07-12T10:05:08.523Z,4.43
2017-07-12T10:07:36.086Z,3.70
2017-07-12T10:10:03.628Z,3.73
2017-07-12T10:12:31.176Z,3.70
2017-07-12T10:14:58.726Z,3.80
2017-07-12T10:17:26.329Z,3.90
2017-07-12T10:19:53.848Z,4.03
2017-07-12T10:22:21.389Z,3.70
2017-07-12T10:24:48.908Z,3.83
2017-07-12T10:27:16.452Z,4.20
2017-07-12T10:29:43.967Z,3.70
2017-07-12T10:32:11.568Z,3.83
2017-07-12T10:34:39.088Z,3.70
2017-07-12T10:37:06.631Z,3.40
2017-07-12T10:39:34.195Z,3.57
2017-07-12T10:42:01.724Z,3.87
2017-07-12T10:44:29.286Z,3.70
2017-07-12T10:46:56.809Z,3.90
2017-07-12T10:49:24.366Z,3.80
2017-07-12T10:51:51.908Z,3.87
2017-07-12T10:54:20.253Z,4.03
2017-07-12T10:56:47.771Z,4.10
2017-07-12T10:59:15.339Z,3.43
2017-07-12T11:01:42.864Z,3.63
2017-07-12T11:04:10.387Z,3.50
2017-07-12T11:06:37.892Z,3.80
2017-07-12T11:09:05.416Z,3.33
2017-07-12T11:11:32.991Z,3.30
2017-07-12T11:14:00.511Z,3.47
2017-07-12T11:16:28.057Z,3.40
2017-07-12T11:18:56.420Z,3.60
2017-07-12T11:21:23.958Z,3.67
2017-07-12T11:23:51.468Z,3.53
2017-07-12T11:26:19.042Z,3.77
2017-07-12T11:28:46.577Z,3.23
2017-07-12T11:31:14.190Z,3.30
2017-07-12T11:33:41.705Z,3.90
2017-07-12T11:36:09.241Z,3.53
2017-07-12T11:38:36.763Z,3.60
2017-07-12T11:41:04.304Z,3.40
2017-07-12T11:43:31.845Z,3.30
2017-07-12T11:45:59.372Z,3.43
2017-07-12T11:48:26.900Z,3.60
2017-07-12T11:50:54.421Z,3.50
2017-07-12T11:53:21.958Z,3.33
2017-07-12T11:55:49.501Z,3.40
2017-07-12T11:58:17.089Z,3.30
2017-07-12T12:00:45.427Z,3.30
2017-07-12T12:03:12.970Z,3.50
2017-07-12T12:05:40.529Z,3.10
2017-07-12T12:08:08.088Z,3.37
2017-07-12T12:10:35.620Z,3.00
2017-07-12T12:13:03.975Z,2.97
2017-07-12T12:15:31.548Z,3.40
2017-07-12T12:17:59.061Z,3.10
2017-07-12T12:20:26.598Z,3.03
2017-07-12T12:22:54.100Z,3.00
2017-07-12T12:25:21.651Z,3.27
2017-07-12T12:27:49.194Z,3.00
2017-07-12T12:30:16.775Z,2.83
2017-07-12T12:32:44.295Z,2.90
2017-07-12T12:35:12.148Z,2.90
2017-07-12T12:37:39.701Z,3.47
2017-07-12T12:40:07.268Z,3.37
2017-07-12T12:42:34.825Z,3.03
2017-07-12T12:45:02.388Z,2.97
2017-07-12T12:47:29.908Z,2.83
2017-07-12T12:49:57.487Z,2.77
2017-07-12T12:52:25.797Z,3.30
2017-07-12T12:54:53.328Z,2.87
2017-07-12T12:57:20.864Z,2.60
2017-07-12T12:59:48.409Z,3.17
2017-07-12T13:02:15.945Z,3.20
2017-07-12T13:04:49.103Z,2.90
2017-07-12T13:07:17.405Z,3.20
2017-07-12T13:09:44.931Z,3.00
2017-07-12T13:12:12.493Z,2.70
2017-07-12T13:14:40.777Z,2.40
2017-07-12T13:17:09.081Z,2.47
2017-07-12T13:19:36.604Z,2.50
2017-07-12T13:22:04.114Z,2.00
2017-07-12T13:24:31.647Z,2.00
2017-07-12T13:26:59.181Z,2.30
2017-07-12T13:29:27.484Z,2.40
2017-07-12T13:31:55.002Z,2.07
2017-07-12T13:34:22.574Z,1.80
2017-07-12T13:36:50.099Z,1.87
2017-07-12T13:39:17.625Z,1.83
2017-07-12T13:41:45.164Z,1.63
2017-07-12T13:44:12.745Z,1.53
2017-07-12T13:46:40.272Z,1.57
2017-07-12T13:49:07.780Z,1.53
2017-07-12T13:51:35.357Z,1.43
2017-07-12T13:54:02.933Z,1.40
2017-07-12T13:56:30.468Z,1.40
2017-07-12T13:58:57.990Z,1.47
2017-07-12T14:01:25.529Z,1.30
2017-07-12T14:03:53.117Z,1.37
2017-07-12T14:06:20.669Z,1.30
2017-07-12T14:08:48.185Z,1.40
2017-07-12T14:11:15.757Z,1.30
2017-07-12T14:13:43.283Z,1.10
2017-07-12T14:16:10.857Z,1.30
2017-07-12T14:18:38.392Z,1.33
2017-07-12T14:21:05.955Z,1.33
2017-07-12T14:23:33.475Z,1.27
2017-07-12T14:26:00.996Z,1.20
2017-07-12T14:28:28.528Z,1.57
2017-07-12T14:30:56.034Z,1.20
2017-07-12T14:33:23.568Z,1.10
2017-07-12T14:35:51.082Z,1.30
2017-07-12T14:38:18.613Z,1.10
2017-07-12T14:40:46.132Z,1.70
2017-07-12T14:43:13.663Z,1.27
2017-07-12T14:45:41.181Z,1.30
2017-07-12T14:48:08.726Z,1.77
2017-07-12T14:50:36.240Z,1.20
2017-07-12T14:53:03.794Z,1.20
2017-07-12T14:55:31.341Z,1.20
2017-07-12T14:57:59.621Z,1.37
2017-07-12T15:00:27.180Z,1.30
2017-07-12T15:02:54.697Z,1.20
2017-07-12T15:05:22.286Z,1.10
2017-07-12T15:07:49.762Z,1.10
2017-07-12T15:10:17.331Z,1.40
2017-07-12T15:12:44.881Z,1.73
2017-07-12T15:15:12.415Z,1.70
2017-07-12T15:17:39.920Z,1.97
2017-07-12T15:20:07.950Z,1.53
2017-07-12T15:22:35.515Z,1.47
2017-07-12T15:25:03.045Z,1.43
2017-07-12T15:27:30.578Z,1.70
2017-07-12T15:29:58.123Z,1.50
2017-07-12T15:32:25.653Z,2.30
2017-07-12T15:34:53.168Z,1.77
2017-07-12T15:37:20.721Z,1.40
2017-07-12T15:39:48.277Z,2.00
2017-07-12T15:42:15.901Z,1.70
2017-07-12T15:44:43.352Z,1.80
2017-07-12T15:47:10.952Z,1.80
2017-07-12T15:49:38.493Z,1.70
2017-07-12T15:52:06.004Z,1.90
2017-07-12T15:54:33.537Z,2.00
2017-07-12T15:57:01.097Z,1.50
2017-07-12T15:59:28.669Z,2.13
2017-07-12T16:01:56.205Z,1.63
2017-07-12T16:04:23.747Z,1.60
2017-07-12T16:06:51.707Z,1.70
2017-07-12T16:09:19.238Z,1.57
2017-07-12T16:11:46.745Z,1.87
2017-07-12T16:14:14.284Z,1.60
2017-07-12T16:16:41.799Z,1.37
2017-07-12T16:19:09.340Z,1.57
2017-07-12T16:21:36.873Z,1.43
2017-07-12T16:24:04.388Z,1.60
2017-07-12T16:26:31.939Z,1.33
2017-07-12T16:28:59.468Z,1.50
2017-07-12T16:31:27.004Z,1.70
2017-07-12T16:33:54.636Z,1.83
2017-07-12T16:36:22.201Z,1.70
2017-07-12T16:38:49.726Z,1.43
2017-07-12T16:41:17.270Z,1.63
2017-07-12T16:43:44.788Z,1.50
2017-07-12T16:46:12.373Z,1.40
2017-07-12T16:48:39.894Z,1.50
2017-07-12T16:51:08.180Z,1.53
2017-07-12T16:53:35.716Z,1.40
2017-07-12T16:56:03.251Z,1.53
2017-07-12T16:58:30.815Z,1.63
2017-07-12T17:00:58.325Z,1.53
2017-07-12T17:03:25.861Z,1.70
2017-07-12T17:05:53.398Z,1.53
2017-07-12T17:08:20.969Z,1.40
2017-07-12T17:10:48.524Z,1.43
2017-07-12T17:13:16.121Z,1.50
2017-07-12T17:15:43.661Z,1.30
2017-07-12T17:18:11.203Z,1.53
2017-07-12T17:20:38.746Z,1.40
2017-07-12T17:23:06.297Z,1.70
2017-07-12T17:25:33.804Z,1.53
2017-07-12T17:28:01.330Z,1.60
2017-07-12T17:30:28.856Z,1.57
2017-07-12T17:32:56.368Z,1.40
2017-07-12T17:35:23.905Z,1.60
2017-07-12T17:37:51.420Z,1.20
2017-07-12T17:40:18.960Z,1.30
2017-07-12T17:42:46.514Z,1.30
2017-07-12T17:45:14.065Z,1.60
2017-07-12T17:47:41.580Z,1.57
2017-07-12T17:50:09.526Z,1.70
2017-07-12T17:52:37.097Z,1.83
2017-07-12T17:55:04.733Z,1.73
2017-07-12T17:57:32.329Z,2.30
2017-07-12T18:00:00.097Z,2.10
2017-07-12T18:02:27.651Z,1.43
2017-07-12T18:04:55.180Z,1.93
2017-07-12T18:07:22.696Z,1.90
2017-07-12T18:09:50.248Z,2.60
2017-07-12T18:12:17.883Z,2.27
2017-07-12T18:14:45.669Z,1.97
2017-07-12T18:17:13.796Z,1.90
2017-07-12T18:19:41.456Z,2.17
2017-07-12T18:22:08.983Z,1.90
2017-07-12T18:24:36.603Z,2.10
2017-07-12T18:27:04.150Z,2.10
2017-07-12T18:29:31.697Z,2.03
2017-07-12T18:31:59.418Z,2.03
2017-07-12T18:34:26.941Z,2.00
2017-07-12T18:36:54.475Z,1.73
2017-07-12T18:39:22.034Z,1.90
2017-07-12T18:41:49.580Z,2.57
2017-07-12T18:44:17.136Z,2.03
2017-07-12T18:46:45.472Z,1.53
2017-07-12T18:49:13.180Z,1.70
2017-07-12T18:51:40.701Z,1.70
2017-07-12T18:54:08.233Z,1.77
2017-07-12T18:56:35.748Z,1.50
2017-07-12T18:59:03.553Z,1.83
2017-07-12T19:01:31.107Z,1.50
2017-07-12T19:03:58.663Z,1.60
2017-07-12T19:06:26.180Z,1.40
2017-07-12T19:08:53.729Z,1.87
2017-07-12T19:11:21.240Z,1.90
2017-07-12T19:13:48.780Z,1.40
2017-07-12T19:16:17.071Z,1.80
2017-07-12T19:18:44.577Z,1.40
2017-07-12T19:21:12.149Z,1.30
2017-07-12T19:23:39.696Z,2.10
2017-07-12T19:26:07.265Z,1.67
2017-07-12T19:28:34.781Z,1.40
2017-07-12T19:31:02.321Z,1.50
2017-07-12T19:33:29.865Z,1.70
2017-07-12T19:35:58.212Z,1.97
2017-07-12T19:38:25.796Z,1.53
2017-07-12T19:40:53.395Z,1.67
2017-07-12T19:43:20.981Z,1.67
2017-07-12T19:45:48.524Z,1.63
2017-07-12T19:48:16.063Z,2.10
2017-07-12T19:50:43.615Z,2.20
2017-07-12T19:53:11.152Z,2.00
2017-07-12T19:55:38.694Z,1.83
2017-07-12T19:58:06.228Z,1.60
2017-07-12T20:00:33.768Z,2.03
2017-07-12T20:03:01.373Z,1.30
2017-07-12T20:05:28.907Z,1.67
2017-07-12T20:07:56.452Z,1.63
2017-07-12T20:10:23.960Z,1.83
2017-07-12T20:12:51.495Z,1.70
2017-07-12T20:15:19.045Z,1.60
2017-07-12T20:20:20.553Z,1.80
2017-07-12T20:22:48.096Z,1.67
2017-07-12T20:25:15.632Z,2.00
2017-07-12T20:27:43.189Z,2.17
2017-07-12T20:30:10.723Z,1.70
2017-07-12T20:32:38.243Z,2.10
2017-07-12T20:35:05.771Z,1.70
2017-07-12T20:37:33.291Z,1.70
2017-07-12T20:40:00.823Z,1.50
2017-07-12T20:42:28.353Z,1.70
2017-07-12T20:44:55.887Z,1.60
2017-07-12T20:47:23.421Z,1.57
2017-07-12T20:49:51.725Z,1.53
2017-07-12T20:52:19.276Z,1.60
2017-07-12T20:54:46.816Z,1.50
2017-07-12T20:57:15.108Z,1.50
2017-07-12T20:59:42.639Z,1.40
2017-07-12T21:02:10.190Z,1.30
2017-07-12T21:04:37.984Z,1.50
2017-07-12T21:07:06.136Z,1.40
2017-07-12T21:09:34.151Z,1.50
2017-07-12T21:12:02.015Z,1.73
2017-07-12T21:14:30.720Z,2.10
2017-07-12T21:16:58.277Z,1.97
2017-07-12T21:19:25.795Z,1.67
2017-07-12T21:21:53.356Z,1.83
2017-07-12T21:24:21.648Z,1.80
2017-07-12T21:26:49.187Z,1.80
2017-07-12T21:29:16.717Z,1.30
2017-07-12T21:31:44.232Z,1.93
2017-07-12T21:34:11.835Z,1.80
2017-07-12T21:36:39.343Z,1.57
2017-07-12T21:39:06.892Z,1.70
2017-07-12T21:41:34.468Z,1.87
2017-07-12T21:44:02.463Z,1.60
2017-07-12T21:46:30.066Z,1.93
2017-07-12T21:48:57.615Z,1.70
2017-07-12T21:51:25.127Z,1.60
2017-07-12T21:54:10.216Z,1.93
2017-07-12T21:56:55.347Z,1.53
2017-07-12T21:59:42.071Z,1.90
2017-07-12T22:02:27.062Z,1.83
2017-07-12T22:05:12.068Z,1.33
2017-07-12T22:07:57.077Z,1.40
2017-07-12T22:10:42.028Z,1.57
2017-07-12T22:13:26.917Z,1.73
2017-07-12T22:16:11.796Z,2.27
2017-07-12T22:18:56.865Z,1.80
2017-07-12T22:21:41.879Z,1.60
2017-07-12T22:24:26.833Z,1.80
2017-07-12T22:27:11.724Z,1.97
2017-07-12T22:29:57.443Z,1.50
2017-07-12T22:32:42.349Z,1.80
2017-07-12T22:35:27.420Z,1.70
2017-07-12T22:38:00.503Z,1.60
2017-07-12T22:40:33.632Z,1.40
2017-07-12T22:43:06.742Z,1.77
2017-07-12T22:45:34.264Z,1.70
2017-07-12T22:48:01.898Z,2.00
2017-07-12T22:50:29.446Z,1.53
2017-07-12T22:52:56.969Z,1.73
2017-07-12T22:55:24.505Z,1.40
2017-07-12T22:57:52.033Z,1.77
2017-07-12T23:00:19.596Z,1.67
2017-07-12T23:02:47.115Z,1.33
2017-07-12T23:05:14.645Z,1.40
2017-07-12T23:07:42.154Z,1.13
2017-07-12T23:10:09.684Z,1.43
2017-07-12T23:12:37.196Z,1.90
2017-07-12T23:15:04.748Z,1.90
2017-07-12T23:17:32.272Z,1.70
2017-07-12T23:19:59.849Z,1.50
2017-07-12T23:22:27.359Z,1.53
2017-07-12T23:24:55.664Z,1.40
2017-07-12T23:27:23.984Z,1.80
2017-07-12T23:29:51.515Z,1.70
2017-07-12T23:32:19.070Z,1.30
2017-07-12T23:34:46.581Z,1.43
2017-07-12T23:37:14.108Z,1.60
2017-07-12T23:39:41.620Z,1.67
2017-07-12T23:42:09.258Z,1.93
2017-07-12T23:44:36.756Z,1.60
2017-07-12T23:47:04.314Z,1.30
2017-07-12T23:49:31.864Z,1.63
2017-07-12T23:51:59.408Z,1.47
2017-07-12T23:54:26.948Z,1.60
2017-07-12T23:56:55.280Z,1.10
2017-07-12T23:59:22.823Z,1.37
